createdAt,value
2022-08-11T00:02:52.017Z,2.50
2022-08-11T00:07:56.556Z,2.30
2022-08-11T00:13:01.432Z,2.23
2022-08-11T00:18:04.414Z,2.20
2022-08-11T00:23:10.314Z,2.27
2022-08-11T00:28:42.405Z,2.17
2022-08-11T00:33:46.150Z,2.47
2022-08-11T00:38:52.516Z,2.40
2022-08-11T00:44:04.008Z,2.57
2022-08-11T00:49:34.102Z,2.50
2022-08-11T00:54:39.837Z,2.30
2022-08-11T01:00:20.236Z,2.40
2022-08-11T01:05:51.701Z,2.70
2022-08-11T01:10:57.399Z,2.63
2022-08-11T01:16:31.165Z,2.70
2022-08-11T01:22:11.581Z,2.93
2022-08-11T01:27:35.254Z,2.73
2022-08-11T01:33:28.433Z,2.60
2022-08-11T01:38:31.063Z,2.30
2022-08-11T01:44:22.855Z,2.67
2022-08-11T01:50:08.970Z,2.93
2022-08-11T01:55:18.597Z,2.20
2022-08-11T02:00:25.201Z,2.30
2022-08-11T02:06:01.239Z,2.47
2022-08-11T02:11:30.402Z,2.30
2022-08-11T02:16:54.479Z,2.10
2022-08-11T02:22:34.676Z,2.50
2022-08-11T02:27:54.297Z,2.60
2022-08-11T02:33:27.963Z,2.73
2022-08-11T02:38:54.179Z,2.30
2022-08-11T02:44:54.065Z,2.63
2022-08-11T02:50:07.663Z,3.00
2022-08-11T02:55:56.191Z,3.00
2022-08-11T03:00:57.532Z,2.63
2022-08-11T03:06:34.337Z,3.10
2022-08-11T03:12:28.213Z,2.67
2022-08-11T03:17:36.802Z,2.50
2022-08-11T03:22:49.057Z,2.83
2022-08-11T03:28:07.252Z,3.10
2022-08-11T03:33:34.542Z,2.60
2022-08-11T03:39:06.190Z,3.20
2022-08-11T03:44:23.524Z,3.07
2022-08-11T03:49:45.955Z,3.23
2022-08-11T03:55:10.831Z,2.53
2022-08-11T04:00:30.166Z,2.70
2022-08-11T04:06:09.246Z,2.90
2022-08-11T04:11:54.938Z,2.63
2022-08-11T04:17:44.965Z,3.00
2022-08-11T04:23:12.459Z,2.77
2022-08-11T04:28:56.106Z,3.10
2022-08-11T04:34:17.999Z,2.90
2022-08-11T04:39:42.158Z,2.77
2022-08-11T04:44:57.156Z,3.00
2022-08-11T04:50:39.554Z,3.00
2022-08-11T04:56:36.072Z,2.80
2022-08-11T05:01:43.755Z,3.13
2022-08-11T05:07:09.553Z,3.13
2022-08-11T05:12:37.158Z,3.30
2022-08-11T05:18:11.940Z,3.73
2022-08-11T05:23:34.578Z,3.07
2022-08-11T05:30:06.501Z,3.00
2022-08-11T05:35:09.552Z,4.07
2022-08-11T05:40:32.263Z,4.30
2022-08-11T05:45:58.217Z,4.10
2022-08-11T05:51:29.903Z,3.97
2022-08-11T05:56:35.148Z,4.10
2022-08-11T06:01:39.319Z,4.80
2022-08-11T06:06:54.523Z,4.53
2022-08-11T06:12:16.713Z,4.30
2022-08-11T06:17:38.523Z,5.27
2022-08-11T06:22:52.349Z,5.13
2022-08-11T06:27:56.439Z,4.47
2022-08-11T06:33:01.062Z,5.43
2022-08-11T06:38:08.425Z,4.63
2022-08-11T06:43:18.784Z,6.40
2022-08-11T06:48:25.571Z,4.93
2022-08-11T06:53:34.833Z,5.23
2022-08-11T06:58:58.708Z,5.97
2022-08-11T07:04:08.263Z,5.83
2022-08-11T07:10:07.551Z,6.30
2022-08-11T07:16:11.129Z,5.67
2022-08-11T07:22:00.245Z,4.93
2022-08-11T07:26:54.544Z,5.70
2022-08-11T07:32:03.460Z,5.70
2022-08-11T07:37:12.612Z,5.68
2022-08-11T07:42:19.351Z,6.07
2022-08-11T07:47:43.226Z,4.50
2022-08-11T07:52:47.366Z,4.30
2022-08-11T07:58:16.980Z,4.10
2022-08-11T08:03:53.865Z,3.33
2022-08-11T08:09:16.821Z,2.80
2022-08-11T08:14:38.490Z,3.15
2022-08-11T08:19:47.501Z,2.30
2022-08-11T08:24:50.487Z,1.92
2022-08-11T08:30:12.241Z,1.50
2022-08-11T08:35:16.082Z,1.65
2022-08-11T08:40:19.136Z,1.88
2022-08-11T08:45:22.476Z,1.35
2022-08-11T08:50:49.392Z,1.80
2022-08-11T08:55:56.850Z,1.63
2022-08-11T09:01:01.343Z,1.38
2022-08-11T09:06:04.271Z,1.42
2022-08-11T09:11:25.411Z,1.45
2022-08-11T09:16:28.338Z,1.25
2022-08-11T09:21:34.251Z,1.52
2022-08-11T09:26:59.496Z,1.10
2022-08-11T09:32:02.226Z,1.30
2022-08-11T09:37:53.612Z,1.73
2022-08-11T09:43:05.949Z,1.30
2022-08-11T09:48:08.650Z,1.20
2022-08-11T09:53:36.113Z,1.17
2022-08-11T09:58:42.340Z,1.40
2022-08-11T10:03:47.042Z,1.40
2022-08-11T10:08:52.254Z,1.63
2022-08-11T10:14:32.760Z,1.27
2022-08-11T10:19:37.914Z,1.20
2022-08-11T10:25:00.998Z,1.40
2022-08-11T10:30:22.825Z,1.15
2022-08-11T10:35:30.994Z,1.00
2022-08-11T10:40:35.973Z,1.30
2022-08-11T10:46:02.307Z,0.98
2022-08-11T10:51:14.403Z,1.40
2022-08-11T10:56:36.943Z,1.30
2022-08-11T11:01:42.563Z,1.10
2022-08-11T11:06:48.512Z,1.33
2022-08-11T11:12:13.203Z,1.30
2022-08-11T11:17:35.303Z,1.02
2022-08-11T11:22:38.405Z,1.20
2022-08-11T11:28:13.476Z,1.30
2022-08-11T11:33:28.013Z,1.40
2022-08-11T11:38:30.944Z,1.02
2022-08-11T11:43:35.815Z,1.10
2022-08-11T11:48:39.492Z,1.27
2022-08-11T11:53:46.060Z,1.08
2022-08-11T11:59:07.779Z,1.20
2022-08-11T12:04:15.306Z,0.90
2022-08-11T12:09:22.743Z,1.50
2022-08-11T12:14:28.602Z,1.00
2022-08-11T12:19:35.468Z,0.88
2022-08-11T12:24:57.546Z,1.10
2022-08-11T12:30:09.469Z,1.27
2022-08-11T12:35:15.373Z,1.05
2022-08-11T12:41:11.204Z,0.80
2022-08-11T12:46:13.296Z,0.80
2022-08-11T12:52:11.977Z,0.82
2022-08-11T12:57:38.586Z,0.70
2022-08-11T13:03:00.739Z,0.90
2022-08-11T13:08:04.507Z,1.00
2022-08-11T13:13:55.408Z,0.70
2022-08-11T13:18:31.357Z,1.00
2022-08-11T13:23:34.159Z,0.70
2022-08-11T13:28:37.921Z,0.80
2022-08-11T13:33:46.571Z,0.93
2022-08-11T13:38:52.074Z,1.08
2022-08-11T13:43:55.637Z,0.93
2022-08-11T13:49:00.743Z,0.80
2022-08-11T13:54:09.265Z,1.00
2022-08-11T13:59:14.591Z,1.40
2022-08-11T14:04:39.995Z,1.60
2022-08-11T14:09:45.002Z,1.50
2022-08-11T14:14:54.364Z,1.80
2022-08-11T14:19:57.628Z,1.70
2022-08-11T14:25:00.636Z,1.35
2022-08-11T14:30:03.972Z,1.60
2022-08-11T14:35:07.294Z,1.20
2022-08-11T14:40:33.249Z,1.30
2022-08-11T14:45:58.708Z,1.25
2022-08-11T14:51:02.092Z,1.30
2022-08-11T14:56:31.969Z,1.33
2022-08-11T15:01:53.613Z,1.60
2022-08-11T15:06:56.391Z,1.30
2022-08-11T15:12:32.255Z,1.30
2022-08-11T15:17:43.578Z,1.55
2022-08-11T15:23:05.347Z,1.10
2022-08-11T15:28:28.011Z,1.35
2022-08-11T15:33:49.785Z,1.17
2022-08-11T15:39:04.860Z,1.10
2022-08-11T15:44:58.786Z,1.50
2022-08-11T15:50:10.731Z,1.30
2022-08-11T15:55:16.962Z,1.30
2022-08-11T16:00:38.791Z,1.30
2022-08-11T16:05:46.441Z,1.35
2022-08-11T16:10:56.278Z,1.37
2022-08-11T16:16:15.735Z,1.20
2022-08-11T16:21:35.067Z,1.30
2022-08-11T16:27:08.580Z,1.63
2022-08-11T16:32:18.150Z,1.70
2022-08-11T16:37:40.164Z,1.80
2022-08-11T16:43:10.232Z,2.10
2022-08-11T16:48:35.974Z,2.20
2022-08-11T16:53:59.779Z,2.40
2022-08-11T16:59:17.013Z,2.65
2022-08-11T17:04:47.351Z,2.60
2022-08-11T17:10:31.335Z,2.50
2022-08-11T17:15:51.069Z,2.22
2022-08-11T17:20:55.610Z,1.80
2022-08-11T17:26:03.659Z,1.90
2022-08-11T17:31:26.412Z,1.90
2022-08-11T17:36:29.324Z,2.10
2022-08-11T17:41:51.027Z,1.60
2022-08-11T17:47:13.218Z,1.58
2022-08-11T17:52:35.573Z,1.65
2022-08-11T17:57:58.412Z,1.60
2022-08-11T18:03:20.111Z,1.50
2022-08-11T18:08:41.915Z,1.87
2022-08-11T18:14:04.217Z,1.80
2022-08-11T18:19:25.912Z,1.90
2022-08-11T18:24:56.391Z,2.17
2022-08-11T18:30:20.109Z,2.27
2022-08-11T18:35:42.551Z,2.50
2022-08-11T18:41:04.957Z,2.77
2022-08-11T18:46:29.338Z,3.07
2022-08-11T18:51:51.212Z,3.13
2022-08-11T18:57:14.367Z,2.27
2022-08-11T19:02:48.593Z,2.60
2022-08-11T19:08:11.945Z,2.37
2022-08-11T19:13:33.405Z,3.17
2022-08-11T19:18:57.111Z,2.03
2022-08-11T19:24:22.146Z,2.70
2022-08-11T19:30:07.851Z,2.50
2022-08-11T19:35:29.641Z,2.30
2022-08-11T19:40:52.338Z,2.70
2022-08-11T19:46:16.566Z,2.83
2022-08-11T19:51:39.923Z,2.77
2022-08-11T19:57:05.359Z,2.97
2022-08-11T20:02:27.855Z,2.73
2022-08-11T20:07:50.269Z,2.87
2022-08-11T20:13:21.203Z,3.03
2022-08-11T20:18:43.885Z,2.83
2022-08-11T20:24:07.414Z,3.40
2022-08-11T20:29:29.201Z,3.37
2022-08-11T20:34:51.504Z,3.10
2022-08-11T20:40:15.956Z,3.10
2022-08-11T20:45:38.144Z,3.10
2022-08-11T20:51:16.850Z,3.20
2022-08-11T20:56:38.954Z,3.20
2022-08-11T21:02:03.082Z,3.00
2022-08-11T21:07:28.749Z,3.60
2022-08-11T21:12:55.264Z,3.50
2022-08-11T21:18:28.619Z,3.47
2022-08-11T21:23:52.364Z,3.57
2022-08-11T21:29:15.748Z,3.67
2022-08-11T21:34:38.985Z,3.53
2022-08-11T21:40:01.326Z,3.73
2022-08-11T21:45:24.633Z,4.07
2022-08-11T21:50:45.917Z,4.73
2022-08-11T21:56:08.710Z,4.83
2022-08-11T22:01:34.484Z,4.03
2022-08-11T22:06:56.415Z,4.33
2022-08-11T22:12:29.543Z,3.90
2022-08-11T22:17:58.960Z,4.20
2022-08-11T22:23:20.816Z,4.50
2022-08-11T22:28:42.921Z,4.50
2022-08-11T22:34:04.406Z,4.20
2022-08-11T22:39:25.949Z,4.63
2022-08-11T22:44:47.781Z,3.73
2022-08-11T22:50:14.655Z,4.50
2022-08-11T22:55:37.373Z,4.67
2022-08-11T23:00:59.742Z,3.97
2022-08-11T23:06:22.023Z,3.77
2022-08-11T23:11:55.399Z,3.60
2022-08-11T23:17:27.987Z,3.90
2022-08-11T23:22:50.699Z,3.80
2022-08-11T23:28:12.673Z,3.87
2022-08-11T23:33:36.797Z,4.63
2022-08-11T23:38:58.091Z,3.70
2022-08-11T23:44:21.385Z,4.13
2022-08-11T23:49:43.144Z,3.97
2022-08-11T23:55:05.401Z,3.33
